sensor_id;sensor_type;location;lat;lon;timestamp;temperature;humidity
15947;DHT22;8072;52.554;7.966;2023-05-10T00:01:47;14.60;99.90
15947;DHT22;8072;52.554;7.966;2023-05-10T00:04:13;14.60;99.90
15947;DHT22;8072;52.554;7.966;2023-05-10T00:06:39;14.60;99.90
15947;DHT22;8072;52.554;7.966;2023-05-10T00:09:05;14.60;99.90
15947;DHT22;8072;52.554;7.966;2023-05-10T00:11:31;14.60;99.90
15947;DHT22;8072;52.554;7.966;2023-05-10T00:13:56;14.60;99.90
15947;DHT22;8072;52.554;7.966;2023-05-10T00:16:22;14.60;99.90
15947;DHT22;8072;52.554;7.966;2023-05-10T00:18:48;14.60;99.90
15947;DHT22;8072;52.554;7.966;2023-05-10T00:21:14;14.60;99.90
15947;DHT22;8072;52.554;7.966;2023-05-10T00:23:40;14.60;99.90
15947;DHT22;8072;52.554;7.966;2023-05-10T00:26:05;14.60;99.90
15947;DHT22;8072;52.554;7.966;2023-05-10T00:28:31;14.60;99.90
15947;DHT22;8072;52.554;7.966;2023-05-10T00:30:57;14.60;99.90
15947;DHT22;8072;52.554;7.966;2023-05-10T00:33:22;14.60;99.90
15947;DHT22;8072;52.554;7.966;2023-05-10T00:35:48;14.60;99.90
15947;DHT22;8072;52.554;7.966;2023-05-10T00:38:14;14.60;99.90
15947;DHT22;8072;52.554;7.966;2023-05-10T00:40:40;14.50;99.90
15947;DHT22;8072;52.554;7.966;2023-05-10T00:43:06;14.50;99.90
15947;DHT22;8072;52.554;7.966;2023-05-10T00:45:33;14.50;99.90
15947;DHT22;8072;52.554;7.966;2023-05-10T00:48:02;14.50;99.90
15947;DHT22;8072;52.554;7.966;2023-05-10T00:50:30;14.50;99.90
15947;DHT22;8072;52.554;7.966;2023-05-10T00:52:57;14.50;99.90
15947;DHT22;8072;52.554;7.966;2023-05-10T00:55:24;14.50;99.90
15947;DHT22;8072;52.554;7.966;2023-05-10T00:57:49;14.50;99.90
15947;DHT22;8072;52.554;7.966;2023-05-10T01:00:15;14.50;99.90
15947;DHT22;8072;52.554;7.966;2023-05-10T01:02:45;14.50;99.90
15947;DHT22;8072;52.554;7.966;2023-05-10T01:05:11;14.50;99.90
15947;DHT22;8072;52.554;7.966;2023-05-10T01:07:38;14.50;99.90
15947;DHT22;8072;52.554;7.966;2023-05-10T01:10:08;14.50;99.90
15947;DHT22;8072;52.554;7.966;2023-05-10T01:12:37;14.50;99.90
15947;DHT22;8072;52.554;7.966;2023-05-10T01:15:05;14.40;99.90
15947;DHT22;8072;52.554;7.966;2023-05-10T01:17:31;14.40;99.90
15947;DHT22;8072;52.554;7.966;2023-05-10T01:19:57;14.50;99.90
15947;DHT22;8072;52.554;7.966;2023-05-10T01:34:13;14.40;99.90
15947;DHT22;8072;52.554;7.966;2023-05-10T01:37:07;14.40;99.90
15947;DHT22;8072;52.554;7.966;2023-05-10T01:42:13;14.40;99.90
15947;DHT22;8072;52.554;7.966;2023-05-10T01:47:42;14.40;99.90
15947;DHT22;8072;52.554;7.966;2023-05-10T01:50:18;14.40;99.90
15947;DHT22;8072;52.554;7.966;2023-05-10T01:52:47;14.40;99.90
15947;DHT22;8072;52.554;7.966;2023-05-10T01:55:16;14.40;99.90
15947;DHT22;8072;52.554;7.966;2023-05-10T01:57:44;14.30;99.90
15947;DHT22;8072;52.554;7.966;2023-05-10T02:00:12;14.30;99.90
15947;DHT22;8072;52.554;7.966;2023-05-10T02:02:46;14.20;99.90
15947;DHT22;8072;52.554;7.966;2023-05-10T02:05:16;14.20;99.90
15947;DHT22;8072;52.554;7.966;2023-05-10T02:07:43;14.10;99.90
15947;DHT22;8072;52.554;7.966;2023-05-10T02:10:10;14.10;99.90
15947;DHT22;8072;52.554;7.966;2023-05-10T02:12:41;14.00;99.90
15947;DHT22;8072;52.554;7.966;2023-05-10T02:15:07;14.00;99.90
15947;DHT22;8072;52.554;7.966;2023-05-10T02:17:35;14.00;99.90
15947;DHT22;8072;52.554;7.966;2023-05-10T02:20:05;13.90;99.90
15947;DHT22;8072;52.554;7.966;2023-05-10T02:22:32;13.90;99.90
15947;DHT22;8072;52.554;7.966;2023-05-10T02:25:00;13.90;99.90
15947;DHT22;8072;52.554;7.966;2023-05-10T02:27:27;13.90;99.90
15947;DHT22;8072;52.554;7.966;2023-05-10T02:29:54;13.90;99.90
15947;DHT22;8072;52.554;7.966;2023-05-10T02:32:24;13.80;99.90
15947;DHT22;8072;52.554;7.966;2023-05-10T02:34:51;13.90;99.90
15947;DHT22;8072;52.554;7.966;2023-05-10T02:37:19;13.90;99.90
15947;DHT22;8072;52.554;7.966;2023-05-10T02:39:47;13.90;99.90
15947;DHT22;8072;52.554;7.966;2023-05-10T02:42:25;13.80;99.90
15947;DHT22;8072;52.554;7.966;2023-05-10T02:44:56;13.80;99.90
15947;DHT22;8072;52.554;7.966;2023-05-10T02:47:22;13.80;99.90
15947;DHT22;8072;52.554;7.966;2023-05-10T02:49:48;13.70;99.90
15947;DHT22;8072;52.554;7.966;2023-05-10T02:52:19;13.70;99.90
15947;DHT22;8072;52.554;7.966;2023-05-10T02:54:49;13.70;99.90
15947;DHT22;8072;52.554;7.966;2023-05-10T02:57:17;13.60;99.90
15947;DHT22;8072;52.554;7.966;2023-05-10T02:59:47;13.60;99.90
15947;DHT22;8072;52.554;7.966;2023-05-10T03:02:14;13.50;99.90
15947;DHT22;8072;52.554;7.966;2023-05-10T03:04:39;13.50;99.90
15947;DHT22;8072;52.554;7.966;2023-05-10T03:07:05;13.50;99.90
15947;DHT22;8072;52.554;7.966;2023-05-10T03:09:32;13.50;99.90
15947;DHT22;8072;52.554;7.966;2023-05-10T03:12:09;13.40;99.90
15947;DHT22;8072;52.554;7.966;2023-05-10T03:20:04;13.30;99.90
15947;DHT22;8072;52.554;7.966;2023-05-10T03:22:37;13.30;99.90
15947;DHT22;8072;52.554;7.966;2023-05-10T03:25:06;13.20;99.90
15947;DHT22;8072;52.554;7.966;2023-05-10T03:27:35;13.30;99.90
15947;DHT22;8072;52.554;7.966;2023-05-10T03:30:02;13.20;99.90
15947;DHT22;8072;52.554;7.966;2023-05-10T03:32:29;13.20;99.90
15947;DHT22;8072;52.554;7.966;2023-05-10T03:34:57;13.10;99.90
15947;DHT22;8072;52.554;7.966;2023-05-10T03:37:22;13.10;99.90
15947;DHT22;8072;52.554;7.966;2023-05-10T03:39:48;13.10;99.90
15947;DHT22;8072;52.554;7.966;2023-05-10T03:42:15;13.10;99.90
15947;DHT22;8072;52.554;7.966;2023-05-10T03:44:43;13.00;99.90
15947;DHT22;8072;52.554;7.966;2023-05-10T03:47:09;13.10;99.90
15947;DHT22;8072;52.554;7.966;2023-05-10T03:49:35;13.00;99.90
15947;DHT22;8072;52.554;7.966;2023-05-10T03:52:00;13.00;99.90
15947;DHT22;8072;52.554;7.966;2023-05-10T03:54:26;12.90;99.90
15947;DHT22;8072;52.554;7.966;2023-05-10T03:56:52;13.00;99.90
15947;DHT22;8072;52.554;7.966;2023-05-10T03:59:18;12.90;99.90
15947;DHT22;8072;52.554;7.966;2023-05-10T04:01:43;12.90;99.90
15947;DHT22;8072;52.554;7.966;2023-05-10T04:04:09;12.90;99.90
15947;DHT22;8072;52.554;7.966;2023-05-10T04:06:35;12.90;99.90
15947;DHT22;8072;52.554;7.966;2023-05-10T04:09:01;12.90;99.90
15947;DHT22;8072;52.554;7.966;2023-05-10T04:11:29;12.90;99.90
15947;DHT22;8072;52.554;7.966;2023-05-10T04:13:55;12.90;99.90
15947;DHT22;8072;52.554;7.966;2023-05-10T04:16:21;12.90;99.90
15947;DHT22;8072;52.554;7.966;2023-05-10T04:18:48;12.90;99.90
15947;DHT22;8072;52.554;7.966;2023-05-10T04:21:14;12.90;99.90
15947;DHT22;8072;52.554;7.966;2023-05-10T04:23:40;12.90;99.90
15947;DHT22;8072;52.554;7.966;2023-05-10T04:26:06;12.80;99.90
15947;DHT22;8072;52.554;7.966;2023-05-10T04:28:32;12.80;99.90
15947;DHT22;8072;52.554;7.966;2023-05-10T04:31:06;12.80;99.90
15947;DHT22;8072;52.554;7.966;2023-05-10T04:33:32;12.90;99.90
15947;DHT22;8072;52.554;7.966;2023-05-10T04:35:58;12.90;99.90
15947;DHT22;8072;52.554;7.966;2023-05-10T04:38:24;12.80;99.90
15947;DHT22;8072;52.554;7.966;2023-05-10T04:40:54;12.90;99.90
15947;DHT22;8072;52.554;7.966;2023-05-10T04:43:20;12.80;99.90
15947;DHT22;8072;52.554;7.966;2023-05-10T04:45:46;12.90;99.90
15947;DHT22;8072;52.554;7.966;2023-05-10T04:48:12;12.80;99.90
15947;DHT22;8072;52.554;7.966;2023-05-10T04:50:38;12.80;99.90
15947;DHT22;8072;52.554;7.966;2023-05-10T04:53:04;12.80;99.90
15947;DHT22;8072;52.554;7.966;2023-05-10T04:55:30;12.80;99.90
15947;DHT22;8072;52.554;7.966;2023-05-10T04:57:56;12.80;99.90
15947;DHT22;8072;52.554;7.966;2023-05-10T05:00:23;12.80;99.90
15947;DHT22;8072;52.554;7.966;2023-05-10T05:02:49;12.80;99.90
15947;DHT22;8072;52.554;7.966;2023-05-10T05:05:14;12.80;99.90
15947;DHT22;8072;52.554;7.966;2023-05-10T05:07:40;12.80;99.90
15947;DHT22;8072;52.554;7.966;2023-05-10T05:10:07;12.80;99.90
15947;DHT22;8072;52.554;7.966;2023-05-10T05:12:34;12.90;99.90
15947;DHT22;8072;52.554;7.966;2023-05-10T05:15:00;12.90;99.90
15947;DHT22;8072;52.554;7.966;2023-05-10T05:17:26;12.90;99.90
15947;DHT22;8072;52.554;7.966;2023-05-10T05:19:53;12.90;99.90
15947;DHT22;8072;52.554;7.966;2023-05-10T05:22:20;12.90;99.90
15947;DHT22;8072;52.554;7.966;2023-05-10T05:24:55;12.90;99.90
15947;DHT22;8072;52.554;7.966;2023-05-10T05:27:22;12.90;99.90
15947;DHT22;8072;52.554;7.966;2023-05-10T05:29:56;12.90;99.90
15947;DHT22;8072;52.554;7.966;2023-05-10T05:32:22;12.90;99.90
15947;DHT22;8072;52.554;7.966;2023-05-10T05:34:48;13.00;99.90
15947;DHT22;8072;52.554;7.966;2023-05-10T05:37:15;13.00;99.90
15947;DHT22;8072;52.554;7.966;2023-05-10T05:39:41;13.00;99.90
15947;DHT22;8072;52.554;7.966;2023-05-10T05:42:11;12.90;99.90
15947;DHT22;8072;52.554;7.966;2023-05-10T05:44:37;13.00;99.90
15947;DHT22;8072;52.554;7.966;2023-05-10T05:47:03;13.00;99.90
15947;DHT22;8072;52.554;7.966;2023-05-10T05:49:29;13.00;99.90
15947;DHT22;8072;52.554;7.966;2023-05-10T05:51:59;13.00;99.90
15947;DHT22;8072;52.554;7.966;2023-05-10T05:54:26;13.10;99.90
15947;DHT22;8072;52.554;7.966;2023-05-10T05:56:54;13.10;99.90
15947;DHT22;8072;52.554;7.966;2023-05-10T05:59:21;13.10;99.90
15947;DHT22;8072;52.554;7.966;2023-05-10T06:01:47;13.10;99.90
15947;DHT22;8072;52.554;7.966;2023-05-10T06:04:13;13.10;99.90
15947;DHT22;8072;52.554;7.966;2023-05-10T06:06:39;13.10;99.90
15947;DHT22;8072;52.554;7.966;2023-05-10T06:09:04;13.10;99.90
15947;DHT22;8072;52.554;7.966;2023-05-10T06:11:30;13.10;99.90
15947;DHT22;8072;52.554;7.966;2023-05-10T06:13:58;13.10;99.90
15947;DHT22;8072;52.554;7.966;2023-05-10T06:16:24;13.10;99.90
15947;DHT22;8072;52.554;7.966;2023-05-10T06:18:50;13.10;99.90
15947;DHT22;8072;52.554;7.966;2023-05-10T06:21:17;13.10;99.90
15947;DHT22;8072;52.554;7.966;2023-05-10T06:23:43;13.10;99.90
15947;DHT22;8072;52.554;7.966;2023-05-10T06:26:09;13.10;99.90
15947;DHT22;8072;52.554;7.966;2023-05-10T06:28:36;13.20;99.90
15947;DHT22;8072;52.554;7.966;2023-05-10T06:31:05;13.20;99.90
15947;DHT22;8072;52.554;7.966;2023-05-10T06:33:32;13.20;99.90
15947;DHT22;8072;52.554;7.966;2023-05-10T06:35:58;13.20;99.90
15947;DHT22;8072;52.554;7.966;2023-05-10T06:38:24;13.20;99.90
15947;DHT22;8072;52.554;7.966;2023-05-10T06:40:50;13.20;99.90
15947;DHT22;8072;52.554;7.966;2023-05-10T06:43:16;13.20;99.90
15947;DHT22;8072;52.554;7.966;2023-05-10T06:45:41;13.20;99.90
15947;DHT22;8072;52.554;7.966;2023-05-10T06:48:08;13.20;99.90
15947;DHT22;8072;52.554;7.966;2023-05-10T06:50:34;13.20;99.90
15947;DHT22;8072;52.554;7.966;2023-05-10T06:53:00;13.20;99.90
15947;DHT22;8072;52.554;7.966;2023-05-10T06:55:27;13.20;99.90
15947;DHT22;8072;52.554;7.966;2023-05-10T06:57:53;13.20;99.90
15947;DHT22;8072;52.554;7.966;2023-05-10T07:00:19;13.20;99.90
15947;DHT22;8072;52.554;7.966;2023-05-10T07:02:46;13.20;99.90
15947;DHT22;8072;52.554;7.966;2023-05-10T07:05:13;13.20;99.90
15947;DHT22;8072;52.554;7.966;2023-05-10T07:07:38;13.20;99.90
15947;DHT22;8072;52.554;7.966;2023-05-10T07:10:05;13.20;99.90
15947;DHT22;8072;52.554;7.966;2023-05-10T07:12:31;13.30;99.90
15947;DHT22;8072;52.554;7.966;2023-05-10T07:14:57;13.30;99.90
15947;DHT22;8072;52.554;7.966;2023-05-10T07:17:22;13.30;99.90
15947;DHT22;8072;52.554;7.966;2023-05-10T07:19:48;13.40;99.90
15947;DHT22;8072;52.554;7.966;2023-05-10T07:22:14;13.40;99.90
15947;DHT22;8072;52.554;7.966;2023-05-10T07:24:40;13.50;99.90
15947;DHT22;8072;52.554;7.966;2023-05-10T07:27:06;13.50;99.90
15947;DHT22;8072;52.554;7.966;2023-05-10T07:29:33;13.50;99.90
15947;DHT22;8072;52.554;7.966;2023-05-10T07:31:59;13.50;99.90
15947;DHT22;8072;52.554;7.966;2023-05-10T07:34:24;13.60;99.90
15947;DHT22;8072;52.554;7.966;2023-05-10T07:36:50;13.60;99.90
15947;DHT22;8072;52.554;7.966;2023-05-10T07:39:16;13.60;99.90
15947;DHT22;8072;52.554;7.966;2023-05-10T07:41:42;13.70;99.90
15947;DHT22;8072;52.554;7.966;2023-05-10T07:44:08;13.70;99.90
15947;DHT22;8072;52.554;7.966;2023-05-10T07:46:33;13.80;99.90
15947;DHT22;8072;52.554;7.966;2023-05-10T07:48:59;13.80;99.90
15947;DHT22;8072;52.554;7.966;2023-05-10T07:51:25;13.90;99.90
15947;DHT22;8072;52.554;7.966;2023-05-10T07:53:51;13.90;99.90
15947;DHT22;8072;52.554;7.966;2023-05-10T07:56:28;14.00;99.90
15947;DHT22;8072;52.554;7.966;2023-05-10T07:59:02;14.00;99.90
15947;DHT22;8072;52.554;7.966;2023-05-10T08:01:33;14.00;99.90
15947;DHT22;8072;52.554;7.966;2023-05-10T08:04:00;14.10;99.90
15947;DHT22;8072;52.554;7.966;2023-05-10T08:06:26;14.20;99.90
15947;DHT22;8072;52.554;7.966;2023-05-10T08:08:53;14.20;99.90
15947;DHT22;8072;52.554;7.966;2023-05-10T08:11:22;14.20;99.90
15947;DHT22;8072;52.554;7.966;2023-05-10T08:13:50;14.20;99.90
15947;DHT22;8072;52.554;7.966;2023-05-10T08:16:17;14.20;99.90
15947;DHT22;8072;52.554;7.966;2023-05-10T08:18:44;14.30;99.90
15947;DHT22;8072;52.554;7.966;2023-05-10T08:21:10;14.20;99.90
15947;DHT22;8072;52.554;7.966;2023-05-10T08:23:37;14.30;99.90
15947;DHT22;8072;52.554;7.966;2023-05-10T08:26:03;14.30;99.90
15947;DHT22;8072;52.554;7.966;2023-05-10T08:28:28;14.30;99.90
15947;DHT22;8072;52.554;7.966;2023-05-10T08:30:54;14.40;99.90
15947;DHT22;8072;52.554;7.966;2023-05-10T08:33:20;14.40;99.90
15947;DHT22;8072;52.554;7.966;2023-05-10T08:35:46;14.40;99.90
15947;DHT22;8072;52.554;7.966;2023-05-10T08:38:11;14.30;99.90
15947;DHT22;8072;52.554;7.966;2023-05-10T08:40:39;14.30;99.90
15947;DHT22;8072;52.554;7.966;2023-05-10T08:43:09;14.30;99.90
15947;DHT22;8072;52.554;7.966;2023-05-10T08:45:41;14.20;99.90
15947;DHT22;8072;52.554;7.966;2023-05-10T08:48:09;14.20;99.90
15947;DHT22;8072;52.554;7.966;2023-05-10T08:50:40;14.30;99.90
15947;DHT22;8072;52.554;7.966;2023-05-10T08:53:10;14.30;99.90
15947;DHT22;8072;52.554;7.966;2023-05-10T08:55:36;14.30;99.90
15947;DHT22;8072;52.554;7.966;2023-05-10T08:58:04;14.30;99.90
15947;DHT22;8072;52.554;7.966;2023-05-10T09:00:31;14.50;99.90
15947;DHT22;8072;52.554;7.966;2023-05-10T09:02:58;14.50;99.90
15947;DHT22;8072;52.554;7.966;2023-05-10T09:05:24;14.70;99.90
15947;DHT22;8072;52.554;7.966;2023-05-10T09:07:50;14.70;99.90
15947;DHT22;8072;52.554;7.966;2023-05-10T09:10:16;14.80;99.90
15947;DHT22;8072;52.554;7.966;2023-05-10T09:12:44;14.80;99.90
15947;DHT22;8072;52.554;7.966;2023-05-10T09:15:11;14.90;99.90
15947;DHT22;8072;52.554;7.966;2023-05-10T09:17:38;15.00;99.90
15947;DHT22;8072;52.554;7.966;2023-05-10T09:20:06;15.00;99.90
15947;DHT22;8072;52.554;7.966;2023-05-10T09:22:33;15.00;99.90
15947;DHT22;8072;52.554;7.966;2023-05-10T09:25:13;15.00;99.90
15947;DHT22;8072;52.554;7.966;2023-05-10T09:27:40;15.00;99.90
15947;DHT22;8072;52.554;7.966;2023-05-10T09:30:07;15.10;99.90
15947;DHT22;8072;52.554;7.966;2023-05-10T09:32:40;15.10;99.90
15947;DHT22;8072;52.554;7.966;2023-05-10T09:35:10;15.20;99.90
15947;DHT22;8072;52.554;7.966;2023-05-10T09:37:36;15.20;99.90
15947;DHT22;8072;52.554;7.966;2023-05-10T09:40:05;15.20;99.90
15947;DHT22;8072;52.554;7.966;2023-05-10T09:42:31;15.20;99.90
15947;DHT22;8072;52.554;7.966;2023-05-10T09:45:04;15.30;99.90
15947;DHT22;8072;52.554;7.966;2023-05-10T09:47:34;15.30;99.90
15947;DHT22;8072;52.554;7.966;2023-05-10T09:50:02;15.40;99.90
15947;DHT22;8072;52.554;7.966;2023-05-10T09:52:52;15.40;99.90
15947;DHT22;8072;52.554;7.966;2023-05-10T09:55:21;15.50;99.90
15947;DHT22;8072;52.554;7.966;2023-05-10T09:57:48;15.60;99.90
15947;DHT22;8072;52.554;7.966;2023-05-10T10:00:19;15.60;99.90
15947;DHT22;8072;52.554;7.966;2023-05-10T10:02:54;15.50;99.90
15947;DHT22;8072;52.554;7.966;2023-05-10T10:05:20;15.50;99.90
15947;DHT22;8072;52.554;7.966;2023-05-10T10:07:46;15.50;99.90
15947;DHT22;8072;52.554;7.966;2023-05-10T10:10:14;15.40;99.90
15947;DHT22;8072;52.554;7.966;2023-05-10T10:12:41;15.40;99.90
15947;DHT22;8072;52.554;7.966;2023-05-10T10:15:08;15.40;99.90
15947;DHT22;8072;52.554;7.966;2023-05-10T10:17:36;15.30;99.90
15947;DHT22;8072;52.554;7.966;2023-05-10T10:20:03;15.20;99.90
15947;DHT22;8072;52.554;7.966;2023-05-10T10:22:29;15.20;99.90
15947;DHT22;8072;52.554;7.966;2023-05-10T10:24:55;15.20;99.90
15947;DHT22;8072;52.554;7.966;2023-05-10T10:27:26;15.30;99.90
15947;DHT22;8072;52.554;7.966;2023-05-10T10:30:16;15.30;99.90
15947;DHT22;8072;52.554;7.966;2023-05-10T10:33:10;15.30;99.90
15947;DHT22;8072;52.554;7.966;2023-05-10T10:35:39;15.20;99.90
15947;DHT22;8072;52.554;7.966;2023-05-10T10:38:08;15.20;99.90
15947;DHT22;8072;52.554;7.966;2023-05-10T10:40:34;15.20;99.90
15947;DHT22;8072;52.554;7.966;2023-05-10T10:48:35;15.10;99.90
15947;DHT22;8072;52.554;7.966;2023-05-10T10:51:01;15.10;99.90
15947;DHT22;8072;52.554;7.966;2023-05-10T10:53:27;15.10;99.90
15947;DHT22;8072;52.554;7.966;2023-05-10T10:56:26;15.10;99.90
15947;DHT22;8072;52.554;7.966;2023-05-10T10:58:52;15.20;99.90
15947;DHT22;8072;52.554;7.966;2023-05-10T11:01:19;15.20;99.90
15947;DHT22;8072;52.554;7.966;2023-05-10T11:06:41;15.20;99.90
15947;DHT22;8072;52.554;7.966;2023-05-10T11:09:12;15.30;99.90
15947;DHT22;8072;52.554;7.966;2023-05-10T11:11:54;15.30;99.90
15947;DHT22;8072;52.554;7.966;2023-05-10T11:14:24;15.40;99.90
15947;DHT22;8072;52.554;7.966;2023-05-10T11:16:50;15.50;99.90
15947;DHT22;8072;52.554;7.966;2023-05-10T11:19:17;15.50;99.90
15947;DHT22;8072;52.554;7.966;2023-05-10T11:21:51;15.40;99.90
15947;DHT22;8072;52.554;7.966;2023-05-10T11:24:21;15.40;99.90
15947;DHT22;8072;52.554;7.966;2023-05-10T11:26:50;15.30;99.90
15947;DHT22;8072;52.554;7.966;2023-05-10T11:29:17;15.20;99.90
15947;DHT22;8072;52.554;7.966;2023-05-10T11:31:44;15.10;99.90
15947;DHT22;8072;52.554;7.966;2023-05-10T11:34:10;15.10;99.90
15947;DHT22;8072;52.554;7.966;2023-05-10T11:36:37;15.10;99.90
15947;DHT22;8072;52.554;7.966;2023-05-10T11:39:04;15.00;99.90
15947;DHT22;8072;52.554;7.966;2023-05-10T11:41:30;15.00;99.90
15947;DHT22;8072;52.554;7.966;2023-05-10T11:43:57;15.00;99.90
15947;DHT22;8072;52.554;7.966;2023-05-10T11:46:26;15.00;99.90
15947;DHT22;8072;52.554;7.966;2023-05-10T11:48:58;15.00;99.90
15947;DHT22;8072;52.554;7.966;2023-05-10T11:51:27;15.00;99.90
15947;DHT22;8072;52.554;7.966;2023-05-10T11:53:54;15.00;99.90
15947;DHT22;8072;52.554;7.966;2023-05-10T11:56:20;15.10;99.90
15947;DHT22;8072;52.554;7.966;2023-05-10T11:58:55;15.10;99.90
15947;DHT22;8072;52.554;7.966;2023-05-10T12:01:22;15.20;99.90
15947;DHT22;8072;52.554;7.966;2023-05-10T12:03:50;15.20;99.90
15947;DHT22;8072;52.554;7.966;2023-05-10T12:06:16;15.30;99.90
15947;DHT22;8072;52.554;7.966;2023-05-10T12:08:47;15.40;99.90
15947;DHT22;8072;52.554;7.966;2023-05-10T12:11:13;15.50;99.90
15947;DHT22;8072;52.554;7.966;2023-05-10T12:13:42;15.50;99.90
15947;DHT22;8072;52.554;7.966;2023-05-10T12:16:23;15.50;99.90
15947;DHT22;8072;52.554;7.966;2023-05-10T12:18:53;15.50;99.90
15947;DHT22;8072;52.554;7.966;2023-05-10T12:21:20;15.60;99.90
15947;DHT22;8072;52.554;7.966;2023-05-10T12:23:52;15.60;99.90
15947;DHT22;8072;52.554;7.966;2023-05-10T12:26:21;15.50;99.90
15947;DHT22;8072;52.554;7.966;2023-05-10T12:28:47;15.50;99.90
15947;DHT22;8072;52.554;7.966;2023-05-10T12:31:12;15.40;99.90
15947;DHT22;8072;52.554;7.966;2023-05-10T12:33:43;15.40;99.90
15947;DHT22;8072;52.554;7.966;2023-05-10T12:36:14;15.30;99.90
15947;DHT22;8072;52.554;7.966;2023-05-10T12:38:44;15.30;99.90
15947;DHT22;8072;52.554;7.966;2023-05-10T12:41:15;15.30;99.90
15947;DHT22;8072;52.554;7.966;2023-05-10T12:43:41;15.40;99.90
15947;DHT22;8072;52.554;7.966;2023-05-10T12:46:12;15.40;99.90
15947;DHT22;8072;52.554;7.966;2023-05-10T12:48:39;15.40;99.90
15947;DHT22;8072;52.554;7.966;2023-05-10T12:51:05;15.40;99.90
15947;DHT22;8072;52.554;7.966;2023-05-10T12:53:35;15.50;99.90
15947;DHT22;8072;52.554;7.966;2023-05-10T12:56:01;15.50;99.90
15947;DHT22;8072;52.554;7.966;2023-05-10T12:58:26;15.60;99.90
15947;DHT22;8072;52.554;7.966;2023-05-10T13:00:53;15.60;99.90
15947;DHT22;8072;52.554;7.966;2023-05-10T13:03:19;15.70;99.90
15947;DHT22;8072;52.554;7.966;2023-05-10T13:05:44;15.60;99.90
15947;DHT22;8072;52.554;7.966;2023-05-10T13:08:10;15.60;99.90
15947;DHT22;8072;52.554;7.966;2023-05-10T13:10:36;15.50;99.90
15947;DHT22;8072;52.554;7.966;2023-05-10T13:13:02;15.50;99.90
15947;DHT22;8072;52.554;7.966;2023-05-10T13:15:28;15.50;99.90
15947;DHT22;8072;52.554;7.966;2023-05-10T13:17:54;15.50;99.90
15947;DHT22;8072;52.554;7.966;2023-05-10T13:20:20;15.60;99.90
15947;DHT22;8072;52.554;7.966;2023-05-10T13:22:46;15.60;99.90
15947;DHT22;8072;52.554;7.966;2023-05-10T13:25:12;15.80;99.90
15947;DHT22;8072;52.554;7.966;2023-05-10T13:27:39;16.00;99.90
15947;DHT22;8072;52.554;7.966;2023-05-10T13:30:09;16.30;99.90
15947;DHT22;8072;52.554;7.966;2023-05-10T13:32:37;16.60;99.90
15947;DHT22;8072;52.554;7.966;2023-05-10T13:35:04;16.80;99.90
15947;DHT22;8072;52.554;7.966;2023-05-10T13:37:30;16.90;99.90
15947;DHT22;8072;52.554;7.966;2023-05-10T13:39:56;17.10;99.90
15947;DHT22;8072;52.554;7.966;2023-05-10T13:42:23;17.30;99.90
15947;DHT22;8072;52.554;7.966;2023-05-10T13:44:49;17.50;99.90
15947;DHT22;8072;52.554;7.966;2023-05-10T13:47:15;17.80;99.90
15947;DHT22;8072;52.554;7.966;2023-05-10T13:49:41;18.00;99.90
15947;DHT22;8072;52.554;7.966;2023-05-10T13:52:08;18.00;99.90
15947;DHT22;8072;52.554;7.966;2023-05-10T13:54:36;18.20;99.90
15947;DHT22;8072;52.554;7.966;2023-05-10T13:57:02;18.40;99.90
15947;DHT22;8072;52.554;7.966;2023-05-10T13:59:29;18.50;99.90
15947;DHT22;8072;52.554;7.966;2023-05-10T14:01:57;18.50;99.90
15947;DHT22;8072;52.554;7.966;2023-05-10T14:04:23;18.70;99.90
15947;DHT22;8072;52.554;7.966;2023-05-10T14:06:49;18.90;99.90
15947;DHT22;8072;52.554;7.966;2023-05-10T14:09:15;18.90;99.90
15947;DHT22;8072;52.554;7.966;2023-05-10T14:11:41;18.90;99.90
15947;DHT22;8072;52.554;7.966;2023-05-10T14:14:09;18.90;99.90
15947;DHT22;8072;52.554;7.966;2023-05-10T14:16:35;18.90;99.90
15947;DHT22;8072;52.554;7.966;2023-05-10T14:19:00;19.00;99.90
15947;DHT22;8072;52.554;7.966;2023-05-10T14:21:27;19.00;99.90
15947;DHT22;8072;52.554;7.966;2023-05-10T14:23:55;19.10;99.90
15947;DHT22;8072;52.554;7.966;2023-05-10T14:26:21;19.00;99.90
15947;DHT22;8072;52.554;7.966;2023-05-10T14:28:47;18.90;99.90
15947;DHT22;8072;52.554;7.966;2023-05-10T14:31:13;18.90;99.90
15947;DHT22;8072;52.554;7.966;2023-05-10T14:33:40;18.90;99.90
15947;DHT22;8072;52.554;7.966;2023-05-10T14:36:06;18.80;99.90
15947;DHT22;8072;52.554;7.966;2023-05-10T14:38:32;18.90;99.90
15947;DHT22;8072;52.554;7.966;2023-05-10T14:40:58;19.00;99.90
15947;DHT22;8072;52.554;7.966;2023-05-10T14:43:24;19.10;99.90
15947;DHT22;8072;52.554;7.966;2023-05-10T14:45:50;19.10;99.90
15947;DHT22;8072;52.554;7.966;2023-05-10T14:48:16;19.10;99.90
15947;DHT22;8072;52.554;7.966;2023-05-10T14:50:43;19.10;99.90
15947;DHT22;8072;52.554;7.966;2023-05-10T14:53:09;19.00;99.90
15947;DHT22;8072;52.554;7.966;2023-05-10T14:55:35;19.10;99.90
15947;DHT22;8072;52.554;7.966;2023-05-10T14:58:04;19.10;99.90
15947;DHT22;8072;52.554;7.966;2023-05-10T15:00:30;19.00;99.90
15947;DHT22;8072;52.554;7.966;2023-05-10T15:02:56;18.90;99.90
15947;DHT22;8072;52.554;7.966;2023-05-10T15:05:22;18.70;99.90
15947;DHT22;8072;52.554;7.966;2023-05-10T15:07:48;18.50;99.90
15947;DHT22;8072;52.554;7.966;2023-05-10T15:10:15;18.40;99.90
15947;DHT22;8072;52.554;7.966;2023-05-10T15:12:40;18.20;99.90
15947;DHT22;8072;52.554;7.966;2023-05-10T15:15:07;18.30;99.90
15947;DHT22;8072;52.554;7.966;2023-05-10T15:17:34;18.40;99.90
15947;DHT22;8072;52.554;7.966;2023-05-10T15:20:00;18.40;99.90
15947;DHT22;8072;52.554;7.966;2023-05-10T15:22:27;18.30;99.90
15947;DHT22;8072;52.554;7.966;2023-05-10T15:24:54;18.20;99.90
15947;DHT22;8072;52.554;7.966;2023-05-10T15:27:20;18.10;99.90
15947;DHT22;8072;52.554;7.966;2023-05-10T15:29:45;18.00;99.90
15947;DHT22;8072;52.554;7.966;2023-05-10T15:32:11;18.00;99.90
15947;DHT22;8072;52.554;7.966;2023-05-10T15:34:37;17.90;99.90
15947;DHT22;8072;52.554;7.966;2023-05-10T15:37:03;17.70;99.90
15947;DHT22;8072;52.554;7.966;2023-05-10T15:39:29;17.70;99.90
15947;DHT22;8072;52.554;7.966;2023-05-10T15:41:54;17.70;99.90
15947;DHT22;8072;52.554;7.966;2023-05-10T15:44:20;17.70;99.90
15947;DHT22;8072;52.554;7.966;2023-05-10T15:46:46;17.70;99.90
15947;DHT22;8072;52.554;7.966;2023-05-10T15:49:12;17.60;99.90
15947;DHT22;8072;52.554;7.966;2023-05-10T15:51:37;17.50;99.90
15947;DHT22;8072;52.554;7.966;2023-05-10T15:54:03;17.40;99.90
15947;DHT22;8072;52.554;7.966;2023-05-10T15:56:31;17.50;99.90
15947;DHT22;8072;52.554;7.966;2023-05-10T15:58:58;17.40;99.90
15947;DHT22;8072;52.554;7.966;2023-05-10T16:01:24;17.50;99.90
15947;DHT22;8072;52.554;7.966;2023-05-10T16:03:49;17.40;99.90
15947;DHT22;8072;52.554;7.966;2023-05-10T16:06:15;17.40;99.90
15947;DHT22;8072;52.554;7.966;2023-05-10T16:08:41;17.40;99.90
15947;DHT22;8072;52.554;7.966;2023-05-10T16:11:07;17.40;99.90
15947;DHT22;8072;52.554;7.966;2023-05-10T16:13:33;17.40;99.90
15947;DHT22;8072;52.554;7.966;2023-05-10T16:15:59;17.40;99.90
15947;DHT22;8072;52.554;7.966;2023-05-10T16:18:26;17.50;99.90